Terminal Aerodrome Forecast
Issued by NWS Melbourne, FL

Home | Current Version | Previous Version | Text Only | Print | Product List | Glossary On
Versions: 1 2 3 4 5 6 7 8 9 10 11 12 13 14
000
FTUS42 KMLB 231700
TAFDAB
TAF
KDAB 231740Z 2318/2418 18015G22KT P6SM SCT025 BKN035 BKN150
     FM232100 17014G22KT P6SM VCTS BKN035CB BKN060
     FM240200 17006KT P6SM FEW006 SCT025 BKN200
     FM240600 19005KT 5SM BR OVC003
      TEMPO 2413/2415 BKN006
     FM241500 21010KT P6SM BKN015=

USA.gov is the U.S. government's official web portal to all federal, state and local government web resources and services.